Tropical Cyclones
[Index]
Main Index Home Page Stock Weather Photos Extreme Storms Discussion Storm News and Storm Chasing Reports Tropical Cyclones / Hurricanes / Typhoons Weather Data and Links Wild Fires / Bushfires Weather Observation Techniques Weather Picture Catalogue Tornado Pictures and Reports Stock Video Footage and DVDs for sale
Season 1993-1994 Tropical Cyclone SHARON Track Map
Season 1993-1994 Summaries: [BoM-AU] [JTWC-AU] [JTWC-SIO] [JTWC-SPAC] [JTWC-SH]
<<- Previous TC | BoM 1993-1994 Season | Next TC ->>

click for intensity scale information  Lat/long Grid: Show Hide

 Date Labels: Show Hide

Bureau of Meteorology Tropical Cyclone Data

Name: SHARON
Number: 768 / 199394_08

12 Mar 1994 06:00 UTC to 22 Mar 1994 00:00 UTC

    date/time    lat    long    hPa   cat  kts
1994-03-12 06    9.9   119.0   1005         19          
1994-03-12 12    9.9   118.2   1005         19          
1994-03-12 18    9.9   117.4   1000         27          
1994-03-13 00    9.9   116.6   1000         27          
1994-03-13 03   10.1   116.2   1000         27          
1994-03-13 06   10.3   115.8   1000         27          
1994-03-13 09   10.5   115.4   1000         27          
1994-03-13 12   10.7   115.0    995    1    35          
1994-03-13 15   10.8   114.7    995    1    35          
1994-03-13 18   10.9   114.5    995    1    35          
1994-03-13 21   11.1   114.5    990    1    41          
1994-03-14 00   11.4   114.5    990    1    41          
1994-03-14 03   11.7   114.5    990    1    41          
1994-03-14 06   12.2   114.4    985    2    47          
1994-03-14 09   12.7   114.2    980    2    54          
1994-03-14 12   13.1   114.1    975    2    60          
1994-03-14 15   13.4   113.8    970    3    66          
1994-03-14 18   13.7   113.6    965    3    70          
1994-03-14 21   13.9   113.5    960    3    76          
1994-03-15 00   14.2   113.5    955    4    80          
1994-03-15 03   14.5   113.2    950    4    84          
1994-03-15 06   14.9   112.9    945    4    89          
1994-03-15 09   15.4   112.8    935    4    97          
1994-03-15 12   15.9   112.7    930    4    101          
1994-03-15 15   16.3   112.4    935    4    97          
1994-03-15 18   16.6   112.3    945    4    89          
1994-03-15 21   16.9   112.2    950    4    84          
1994-03-16 00   17.2   112.2    955    4    80          
1994-03-16 03   17.4   112.1    960    3    76          
1994-03-16 06   17.5   111.7    965    3    70          
1994-03-16 09   17.6   111.3    970    3    66          
1994-03-16 12   17.7   110.8    975    2    60          
1994-03-16 15   17.8   110.4    980    2    54          
1994-03-16 18   17.8   109.9    980    2    54          
1994-03-16 21   17.9   109.5    985    2    47          
1994-03-17 00   18.0   109.1    985    2    47          
1994-03-17 03   18.2   108.7    985    2    47          
1994-03-17 06   18.4   108.3    985    2    47          
1994-03-17 09   18.7   107.9    985    2    47          
1994-03-17 12   18.9   107.4    990    1    41          
1994-03-17 15   19.2   107.1    990    1    41          
1994-03-17 18   19.5   106.7    990    1    41          
1994-03-17 21   19.9   106.3    995    1    35          
1994-03-18 00   20.3   105.9    995    1    35          
1994-03-18 06   20.9   105.4    995    1    35          
1994-03-18 12   21.4   104.9    995    1    35          
1994-03-18 18   22.1   104.4    995    1    35          
1994-03-19 00   22.7   104.1   1000         27          
1994-03-19 06   23.4   104.2   1000         27          
1994-03-19 09   23.5   104.3   1000         27          
1994-03-19 12   23.6   104.3   1000         27          
1994-03-19 15   23.8   104.2   1000         27          
1994-03-19 18   24.0   103.9   1000         27          
1994-03-19 21   24.2   103.9   1000         27          
1994-03-20 00   24.5   103.9   1000         27          
1994-03-20 06   25.5   103.9   1000         27          
1994-03-20 12   26.5   104.0   1005         19          
1994-03-20 18   27.3   104.4   1005         19          
1994-03-21 00   28.0   104.7   1005         19          
1994-03-21 06   29.6   105.6   1005         19          
1994-03-21 12   30.8   106.8   1005         19          
1994-03-21 18   31.6   108.5   1010                     
1994-03-22 00   32.2   110.6   1010                     
Winds are 10-min average.

Tropical cyclone tracks developed by Michael Bath using data from the Bureau of Meteorology and Google Maps.


[Australian Severe Weather index] [Copyright Notice] [Email Contacts] [Search This Site] [Privacy Policy]
Document: tropical_cyclone_sharon.htm Updated: 30 May 2013